PROFILE

 METAR AND TAF INFORMATION
ADDS - METARS form results

(0743 UTC 19 August 2019)
http://aviationweather.gov/metar/data/
 
ENAT 190650Z 17010KT 9999 FEW020 SCT042 18/12 Q1003 RMK WIND 700FT 18018KT
TAF ENAT 190500Z 1906/1915 15008KT 9999 FEW010 BKN030 TEMPO 1906/1915 15015G25KT 

 AIRPORT MAP

 RUNWAY INFORMATION
Runway 11 Runway length 7165 ft Runway width 131 ft
Runway elevation 8 ft Runway displaced threshold 674 ft Runway heading 121
Runway 29 Runway length 7165 ft Runway width 131 ft
Runway elevation 7 ft Runway displaced threshold 418 ft Runway heading 301

 AIRPORT FREQUENCIES
Type ATIS Name ATIS Frequency 118.175 MHZ
Type TWR Name TWR Frequency 118.1 MHZ

 AIRPORT NEAR NAVIGATION AIDS
Type NDB Name Alta Frequency 358 KHZ
Type VOR-DME Name Alta Frequency 117400 KHZ